createdAt,value
2023-03-04T00:00:27.424Z,-0.10
2023-03-04T00:02:53.833Z,-0.18
2023-03-04T00:05:20.148Z,-0.23
2023-03-04T00:07:46.569Z,-0.30
2023-03-04T00:10:12.956Z,-0.21
2023-03-04T00:12:39.325Z,-0.29
2023-03-04T00:15:06.801Z,-0.26
2023-03-04T00:17:33.183Z,-0.15
2023-03-04T00:19:59.617Z,-0.21
2023-03-04T00:22:25.942Z,-0.23
2023-03-04T00:24:52.295Z,-0.27
2023-03-04T00:27:18.624Z,-0.17
2023-03-04T00:29:45.032Z,-0.29
2023-03-04T00:32:11.636Z,-0.36
2023-03-04T00:34:40.481Z,-0.39
2023-03-04T00:37:06.883Z,-0.54
2023-03-04T00:39:33.187Z,-0.48
2023-03-04T00:41:59.599Z,-0.52
2023-03-04T00:44:25.967Z,-0.64
2023-03-04T00:46:52.321Z,-0.78
2023-03-04T00:49:18.690Z,-0.78
2023-03-04T00:51:45.100Z,-0.86
2023-03-04T00:54:11.453Z,-0.92
2023-03-04T00:56:37.818Z,-1.03
2023-03-04T00:59:04.322Z,-0.91
2023-03-04T01:01:30.862Z,-0.90
2023-03-04T01:03:57.284Z,-0.87
2023-03-04T01:06:54.784Z,-1.03
2023-03-04T01:09:21.156Z,-0.94
2023-03-04T01:11:47.597Z,-0.94
2023-03-04T01:14:14.064Z,-0.89
2023-03-04T01:16:40.463Z,-0.93
2023-03-04T01:19:06.835Z,-0.92
2023-03-04T01:21:33.184Z,-0.93
2023-03-04T01:23:59.556Z,-0.87
2023-03-04T01:26:25.909Z,-0.91
2023-03-04T01:28:52.266Z,-0.93
2023-03-04T01:31:18.608Z,-0.94
2023-03-04T01:33:45.028Z,-0.92
2023-03-04T01:36:11.589Z,-0.95
2023-03-04T01:38:37.901Z,-0.97
2023-03-04T01:41:05.109Z,-0.84
2023-03-04T01:43:32.308Z,-0.91
2023-03-04T01:45:59.022Z,-0.94
2023-03-04T01:48:33.951Z,-0.91
2023-03-04T01:51:03.029Z,-0.90
2023-03-04T01:53:30.813Z,-0.96
2023-03-04T01:56:02.254Z,-1.11
2023-03-04T01:58:31.034Z,-1.08
2023-03-04T02:00:58.385Z,-1.09
2023-03-04T02:03:25.463Z,-1.14
2023-03-04T02:05:53.713Z,-1.27
2023-03-04T02:08:23.320Z,-1.23
2023-03-04T02:10:51.259Z,-1.28
2023-03-04T02:13:17.883Z,-1.30
2023-03-04T02:15:45.796Z,-1.33
2023-03-04T02:18:21.553Z,-1.55
2023-03-04T02:20:59.369Z,-1.73
2023-03-04T02:23:37.743Z,-1.69
2023-03-04T02:26:18.213Z,-1.83
2023-03-04T02:28:45.567Z,-1.72
2023-03-04T02:31:41.049Z,-1.81
2023-03-04T02:34:16.042Z,-1.77
2023-03-04T02:36:44.103Z,-1.83
2023-03-04T02:39:22.628Z,-1.83
2023-03-04T02:41:50.681Z,-1.87
2023-03-04T02:44:20.730Z,-1.97
2023-03-04T02:46:47.995Z,-1.99
2023-03-04T02:49:14.768Z,-1.96
2023-03-04T02:51:41.142Z,-2.14
2023-03-04T02:54:19.479Z,-2.21
2023-03-04T02:56:51.212Z,-2.09
2023-03-04T02:59:18.037Z,-2.14
2023-03-04T03:01:44.666Z,-2.11
2023-03-04T03:04:11.152Z,-2.11
2023-03-04T03:06:37.556Z,-2.07
2023-03-04T03:09:04.045Z,-2.13
2023-03-04T03:11:30.689Z,-2.20
2023-03-04T03:13:57.365Z,-2.17
2023-03-04T03:16:23.795Z,-2.32
2023-03-04T03:18:50.147Z,-2.17
2023-03-04T03:21:16.613Z,-2.15
2023-03-04T03:23:43.295Z,-2.30
2023-03-04T03:26:09.638Z,-2.40
2023-03-04T03:28:36.688Z,-2.45
2023-03-04T03:31:03.044Z,-2.39
2023-03-04T03:33:29.423Z,-2.33
2023-03-04T03:35:55.902Z,-2.35
2023-03-04T03:38:22.295Z,-2.29
2023-03-04T03:40:48.682Z,-2.29
2023-03-04T03:43:15.077Z,-2.31
2023-03-04T03:45:41.456Z,-2.24
2023-03-04T03:48:07.809Z,-2.17
2023-03-04T03:50:34.378Z,-2.18
2023-03-04T03:53:00.994Z,-2.14
2023-03-04T03:55:28.083Z,-2.22
2023-03-04T03:57:54.481Z,-2.15
2023-03-04T04:00:21.289Z,-2.12
2023-03-04T04:02:47.755Z,-2.14
2023-03-04T04:05:14.349Z,-2.19
2023-03-04T04:07:41.725Z,-2.05
2023-03-04T04:10:09.123Z,-2.02
2023-03-04T04:12:35.566Z,-2.06
2023-03-04T04:15:01.981Z,-2.03
2023-03-04T04:17:28.274Z,-1.93
2023-03-04T04:19:54.645Z,-1.89
2023-03-04T04:22:21.583Z,-1.81
2023-03-04T04:24:48.865Z,-1.73
2023-03-04T04:27:15.275Z,-1.71
2023-03-04T04:29:41.861Z,-1.73
2023-03-04T04:32:08.918Z,-1.65
2023-03-04T04:34:35.273Z,-1.61
2023-03-04T04:37:01.694Z,-1.62
2023-03-04T04:39:28.047Z,-1.55
2023-03-04T04:41:54.459Z,-1.52
2023-03-04T04:44:20.761Z,-1.55
2023-03-04T04:46:47.058Z,-1.45
2023-03-04T04:49:13.472Z,-1.41
2023-03-04T04:51:39.920Z,-1.35
2023-03-04T04:54:06.602Z,-1.31
2023-03-04T04:56:33.297Z,-1.24
2023-03-04T04:59:02.704Z,-1.23
2023-03-04T05:01:29.280Z,-1.42
2023-03-04T05:03:55.698Z,-1.45
2023-03-04T05:06:23.605Z,-1.38
2023-03-04T05:08:50.856Z,-1.36
2023-03-04T05:11:19.380Z,-1.35
2023-03-04T05:13:46.885Z,-1.36
2023-03-04T05:16:13.592Z,-1.31
2023-03-04T05:18:40.223Z,-1.46
2023-03-04T05:21:06.810Z,-1.49
2023-03-04T05:23:36.547Z,-1.39
2023-03-04T05:26:04.900Z,-1.33
2023-03-04T05:28:31.626Z,-1.21
2023-03-04T05:30:58.017Z,-1.19
2023-03-04T05:33:24.405Z,-1.12
2023-03-04T05:35:51.109Z,-1.10
2023-03-04T05:38:19.625Z,-1.10
2023-03-04T05:40:46.378Z,-1.03
2023-03-04T05:43:12.893Z,-1.03
2023-03-04T05:45:39.798Z,-0.99
2023-03-04T05:48:07.094Z,-0.93
2023-03-04T05:50:34.291Z,-0.91
2023-03-04T05:53:00.696Z,-0.88
2023-03-04T05:55:28.886Z,-0.89
2023-03-04T05:57:55.747Z,-0.82
2023-03-04T06:00:22.058Z,-0.78
2023-03-04T06:02:48.472Z,-0.73
2023-03-04T06:05:15.639Z,-0.67
2023-03-04T06:07:43.352Z,-0.66
2023-03-04T06:10:15.660Z,-0.64
2023-03-04T06:12:42.559Z,-0.60
2023-03-04T06:15:10.425Z,-0.67
2023-03-04T06:17:39.086Z,-0.60
2023-03-04T06:20:07.169Z,-0.64
2023-03-04T06:22:34.459Z,-0.63
2023-03-04T06:25:01.204Z,-0.63
2023-03-04T06:27:27.745Z,-0.55
2023-03-04T06:29:54.823Z,-0.54
2023-03-04T06:32:21.136Z,-0.57
2023-03-04T06:34:47.443Z,-0.49
2023-03-04T06:37:13.815Z,-0.48
2023-03-04T06:39:40.122Z,-0.41
2023-03-04T06:42:06.621Z,-0.41
2023-03-04T06:44:32.905Z,-0.43
2023-03-04T06:46:59.316Z,-0.46
2023-03-04T06:49:25.862Z,-0.37
2023-03-04T06:51:52.941Z,-0.33
2023-03-04T06:54:19.978Z,-0.28
2023-03-04T06:56:46.394Z,-0.30
2023-03-04T06:59:12.741Z,-0.24
2023-03-04T07:01:39.142Z,-0.20
2023-03-04T07:04:05.655Z,-0.25
2023-03-04T07:06:32.450Z,-0.20
2023-03-04T07:08:58.814Z,-0.13
2023-03-04T07:11:25.457Z,-0.13
2023-03-04T07:13:52.184Z,-0.06
2023-03-04T07:16:21.427Z,-0.06
2023-03-04T07:18:48.258Z,-0.04
2023-03-04T07:21:16.391Z,0.07
2023-03-04T07:23:42.889Z,0.05
2023-03-04T07:26:09.317Z,0.13
2023-03-04T07:28:36.516Z,0.16
2023-03-04T07:31:32.962Z,0.23
2023-03-04T07:34:02.050Z,0.22
2023-03-04T07:36:28.901Z,0.29
2023-03-04T07:38:55.706Z,0.24
2023-03-04T07:41:23.725Z,0.38
2023-03-04T07:43:50.420Z,0.42
2023-03-04T07:46:17.760Z,0.47
2023-03-04T07:48:44.628Z,0.50
2023-03-04T07:51:19.936Z,0.55
2023-03-04T07:53:49.594Z,0.60
2023-03-04T07:56:18.899Z,0.64
2023-03-04T07:58:45.740Z,0.69
2023-03-04T08:01:17.984Z,0.72
2023-03-04T08:03:44.726Z,0.76
2023-03-04T08:06:13.605Z,0.75
2023-03-04T08:08:40.196Z,0.84
2023-03-04T08:11:08.443Z,0.91
2023-03-04T08:13:35.159Z,0.91
2023-03-04T08:16:01.869Z,0.99
2023-03-04T08:18:28.385Z,1.03
2023-03-04T08:20:54.824Z,1.07
2023-03-04T08:23:21.273Z,1.15
2023-03-04T08:25:48.016Z,1.19
2023-03-04T08:28:14.527Z,1.23
2023-03-04T08:30:42.098Z,1.21
2023-03-04T08:33:09.049Z,1.29
2023-03-04T08:35:40.434Z,1.31
2023-03-04T08:38:07.391Z,1.28
2023-03-04T08:40:33.814Z,1.40
2023-03-04T08:43:00.629Z,1.41
2023-03-04T08:45:26.982Z,1.49
2023-03-04T08:47:53.286Z,1.47
2023-03-04T08:50:22.274Z,1.54
2023-03-04T08:52:48.796Z,1.58
2023-03-04T08:55:15.411Z,1.66
2023-03-04T08:57:41.790Z,1.65
2023-03-04T09:00:08.810Z,1.72
2023-03-04T09:02:35.137Z,1.78
2023-03-04T09:05:01.549Z,1.88
2023-03-04T09:07:27.933Z,1.96
2023-03-04T09:09:54.279Z,1.99
2023-03-04T09:12:20.579Z,2.11
2023-03-04T09:14:51.311Z,2.13
2023-03-04T09:17:24.782Z,2.15
2023-03-04T09:19:51.147Z,2.22
2023-03-04T09:22:17.531Z,2.20
2023-03-04T09:24:43.827Z,2.17
2023-03-04T09:27:10.161Z,2.31
2023-03-04T09:29:36.473Z,2.34
2023-03-04T09:32:02.809Z,2.40
2023-03-04T09:34:29.161Z,2.49
2023-03-04T09:36:55.492Z,2.55
2023-03-04T09:39:21.863Z,2.65
2023-03-04T09:41:50.585Z,2.72
2023-03-04T09:44:39.365Z,2.78
2023-03-04T09:47:11.884Z,2.86
2023-03-04T09:49:45.779Z,2.90
2023-03-04T09:52:28.152Z,2.95
2023-03-04T09:55:13.306Z,3.04
2023-03-04T09:57:42.450Z,3.07
2023-03-04T10:00:30.772Z,3.17
2023-03-04T10:03:05.154Z,3.23
2023-03-04T10:05:34.176Z,3.30
2023-03-04T10:08:20.772Z,3.39
2023-03-04T10:10:49.087Z,3.44
2023-03-04T10:13:23.422Z,3.48
2023-03-04T10:15:51.195Z,3.73
2023-03-04T10:18:29.348Z,3.97
2023-03-04T10:21:04.339Z,4.00
2023-03-04T10:23:32.203Z,3.84
2023-03-04T10:26:00.568Z,3.89
2023-03-04T10:28:30.249Z,3.92
2023-03-04T10:31:07.583Z,4.18
2023-03-04T10:33:36.811Z,4.31
2023-03-04T10:36:17.256Z,4.48
2023-03-04T10:38:44.849Z,4.47
2023-03-04T10:41:19.725Z,4.52
2023-03-04T10:43:59.918Z,4.67
2023-03-04T10:46:27.135Z,4.69
2023-03-04T10:48:55.023Z,4.71
2023-03-04T10:51:22.988Z,4.64
2023-03-04T10:53:55.738Z,4.62
2023-03-04T10:56:34.376Z,4.56
2023-03-04T10:59:25.718Z,4.72
2023-03-04T11:01:54.209Z,4.73
2023-03-04T11:04:25.516Z,4.72
2023-03-04T11:06:52.544Z,4.75
2023-03-04T11:09:25.525Z,4.74
2023-03-04T11:11:55.009Z,4.75
2023-03-04T11:14:30.203Z,4.78
2023-03-04T11:17:01.778Z,4.77
2023-03-04T11:19:35.380Z,4.86
2023-03-04T11:22:03.134Z,4.86
2023-03-04T11:24:33.018Z,4.88
2023-03-04T11:27:14.332Z,4.83
2023-03-04T11:29:48.613Z,4.79
2023-03-04T11:32:22.837Z,4.87
2023-03-04T11:34:55.589Z,4.91
2023-03-04T11:37:44.345Z,5.04
2023-03-04T11:40:23.585Z,5.15
2023-03-04T11:43:12.321Z,5.04
2023-03-04T11:46:06.189Z,5.12
2023-03-04T11:48:56.445Z,5.17
2023-03-04T11:51:39.777Z,5.10
2023-03-04T11:54:17.352Z,5.17
2023-03-04T11:56:47.562Z,5.08
2023-03-04T11:59:34.626Z,5.20
2023-03-04T12:02:23.859Z,5.07
2023-03-04T12:05:02.686Z,5.06
2023-03-04T12:07:46.557Z,5.13
2023-03-04T12:10:31.947Z,5.22
2023-03-04T12:13:08.008Z,5.20
2023-03-04T12:15:47.873Z,5.27
2023-03-04T12:18:32.328Z,5.26
2023-03-04T12:21:22.238Z,5.23
2023-03-04T12:24:26.483Z,5.28
2023-03-04T12:27:03.504Z,5.29
2023-03-04T12:29:49.469Z,5.17
2023-03-04T12:32:44.891Z,5.24
2023-03-04T12:35:32.882Z,5.24
2023-03-04T12:38:05.308Z,5.31
2023-03-04T12:40:38.703Z,5.29
2023-03-04T12:43:19.353Z,5.31
2023-03-04T12:46:11.854Z,5.38
2023-03-04T12:48:43.913Z,5.33
2023-03-04T12:51:28.800Z,5.37
2023-03-04T12:53:59.852Z,5.45
2023-03-04T12:56:33.426Z,5.47
2023-03-04T12:59:00.523Z,5.45
2023-03-04T13:01:39.740Z,5.47
2023-03-04T13:04:17.721Z,5.46
2023-03-04T13:07:04.290Z,5.57
2023-03-04T13:09:38.347Z,5.45
2023-03-04T13:12:14.518Z,5.61
2023-03-04T13:14:40.937Z,5.65
2023-03-04T13:17:38.148Z,5.77
2023-03-04T13:20:23.051Z,5.81
2023-03-04T13:22:58.355Z,5.93
2023-03-04T13:25:39.134Z,5.96
2023-03-04T13:28:15.960Z,5.97
2023-03-04T13:31:03.659Z,6.02
2023-03-04T13:33:35.762Z,6.07
2023-03-04T13:36:08.746Z,6.13
2023-03-04T13:38:37.521Z,5.99
2023-03-04T13:41:28.832Z,6.12
2023-03-04T13:43:57.006Z,6.05
2023-03-04T13:46:23.856Z,6.15
2023-03-04T13:48:50.469Z,6.28
2023-03-04T13:51:29.325Z,6.25
2023-03-04T13:53:59.787Z,6.22
2023-03-04T13:56:31.928Z,6.34
2023-03-04T13:59:42.742Z,6.35
2023-03-04T14:02:19.940Z,6.16
2023-03-04T14:04:57.791Z,6.25
2023-03-04T14:07:31.213Z,6.45
2023-03-04T14:10:04.676Z,6.33
2023-03-04T14:12:37.226Z,6.32
2023-03-04T14:15:20.976Z,6.33
2023-03-04T14:17:51.471Z,6.30
2023-03-04T14:20:30.309Z,6.23
2023-03-04T14:22:58.261Z,6.32
2023-03-04T14:25:27.717Z,6.21
2023-03-04T14:28:17.725Z,6.08
2023-03-04T14:30:55.206Z,6.27
2023-03-04T14:33:25.214Z,6.16
2023-03-04T14:35:54.938Z,6.30
2023-03-04T14:38:26.505Z,6.06
2023-03-04T14:41:09.588Z,6.10
2023-03-04T14:43:44.818Z,6.02
2023-03-04T14:46:18.193Z,5.89
2023-03-04T14:48:51.699Z,6.07
2023-03-04T14:51:44.744Z,5.99
2023-03-04T14:54:37.500Z,5.93
2023-03-04T14:57:21.000Z,5.88
2023-03-04T14:59:47.629Z,5.89
2023-03-04T15:02:30.926Z,5.91
2023-03-04T15:05:00.056Z,5.88
2023-03-04T15:07:33.986Z,5.85
2023-03-04T15:10:03.115Z,5.83
2023-03-04T15:12:35.135Z,5.87
2023-03-04T15:15:05.684Z,5.85
2023-03-04T15:17:40.474Z,5.86
2023-03-04T15:20:06.799Z,5.80
2023-03-04T15:22:48.795Z,5.82
2023-03-04T15:25:16.004Z,5.76
2023-03-04T15:27:43.962Z,5.76
2023-03-04T15:30:18.507Z,5.73
2023-03-04T15:32:44.912Z,5.73
2023-03-04T15:35:15.223Z,5.73
2023-03-04T15:37:42.771Z,5.73
2023-03-04T15:40:29.525Z,5.76
2023-03-04T15:42:57.495Z,5.97
2023-03-04T15:45:25.743Z,6.04
2023-03-04T15:47:52.126Z,5.90
2023-03-04T15:50:20.148Z,6.05
2023-03-04T15:52:47.079Z,6.10
2023-03-04T15:55:21.276Z,5.97
2023-03-04T15:57:52.736Z,5.99
2023-03-04T16:00:19.311Z,6.12
2023-03-04T16:02:46.329Z,6.09
2023-03-04T16:05:13.140Z,6.16
2023-03-04T16:07:42.553Z,6.02
2023-03-04T16:10:18.243Z,6.00
2023-03-04T16:12:44.975Z,5.94
2023-03-04T16:15:24.171Z,6.00
2023-03-04T16:17:51.012Z,5.96
2023-03-04T16:20:24.459Z,5.88
2023-03-04T16:22:54.853Z,5.84
2023-03-04T16:25:22.152Z,5.89
2023-03-04T16:27:51.116Z,5.92
2023-03-04T16:30:24.190Z,5.88
2023-03-04T16:32:50.915Z,5.93
2023-03-04T16:35:19.256Z,6.05
2023-03-04T16:37:46.142Z,5.97
2023-03-04T16:40:15.202Z,5.86
2023-03-04T16:42:41.846Z,6.00
2023-03-04T16:45:17.487Z,5.99
2023-03-04T16:47:44.324Z,5.88
2023-03-04T16:50:26.994Z,5.90
2023-03-04T16:52:54.690Z,5.73
2023-03-04T16:55:27.477Z,5.68
2023-03-04T16:57:55.604Z,5.62
2023-03-04T17:00:23.218Z,5.71
2023-03-04T17:02:55.625Z,5.67
2023-03-04T17:05:24.326Z,5.71
2023-03-04T17:07:50.851Z,5.71
2023-03-04T17:10:17.586Z,5.64
2023-03-04T17:12:44.003Z,5.62
2023-03-04T17:15:12.594Z,5.61
2023-03-04T17:17:39.457Z,5.61
2023-03-04T17:20:08.602Z,5.71
2023-03-04T17:22:35.563Z,5.57
2023-03-04T17:25:05.046Z,5.77
2023-03-04T17:27:31.455Z,5.63
2023-03-04T17:29:57.778Z,5.71
2023-03-04T17:32:26.026Z,5.63
2023-03-04T17:34:54.618Z,5.55
2023-03-04T17:37:21.133Z,5.56
2023-03-04T17:39:47.781Z,5.58
2023-03-04T17:42:14.252Z,5.52
2023-03-04T17:44:40.725Z,5.50
2023-03-04T17:47:07.062Z,5.49
2023-03-04T17:49:36.326Z,5.45
2023-03-04T17:52:04.091Z,5.45
2023-03-04T17:54:30.642Z,5.52
2023-03-04T17:56:57.059Z,5.46
2023-03-04T17:59:23.433Z,5.61
2023-03-04T18:01:52.294Z,5.50
2023-03-04T18:04:20.494Z,5.44
2023-03-04T18:06:47.142Z,5.44
2023-03-04T18:09:13.546Z,5.44
2023-03-04T18:11:41.157Z,5.40
2023-03-04T18:14:07.808Z,5.33
2023-03-04T18:16:34.465Z,5.32
2023-03-04T18:19:02.125Z,5.39
2023-03-04T18:21:29.795Z,5.35
2023-03-04T18:23:56.773Z,5.41
2023-03-04T18:26:23.557Z,5.40
2023-03-04T18:28:51.307Z,5.40
2023-03-04T18:31:19.443Z,5.33
2023-03-04T18:33:46.950Z,5.29
2023-03-04T18:36:13.801Z,5.26
2023-03-04T18:38:41.179Z,5.27
2023-03-04T18:41:13.473Z,5.26
2023-03-04T18:43:40.572Z,5.29
2023-03-04T18:46:10.565Z,5.25
2023-03-04T18:48:45.314Z,5.17
2023-03-04T18:51:11.668Z,5.19
2023-03-04T18:53:38.013Z,5.20
2023-03-04T18:56:12.199Z,5.18
2023-03-04T18:58:41.023Z,5.23
2023-03-04T19:01:10.949Z,5.15
2023-03-04T19:03:38.706Z,5.16
2023-03-04T19:06:06.307Z,5.13
2023-03-04T19:08:33.278Z,5.20
2023-03-04T19:10:59.763Z,5.20
2023-03-04T19:13:26.184Z,5.17
2023-03-04T19:15:54.483Z,5.15
2023-03-04T19:18:21.333Z,5.16
2023-03-04T19:20:47.694Z,5.13
2023-03-04T19:23:15.394Z,5.12
2023-03-04T19:25:42.869Z,5.09
2023-03-04T19:28:10.288Z,5.12
2023-03-04T19:30:37.847Z,5.21
2023-03-04T19:33:04.375Z,5.16
2023-03-04T19:35:32.482Z,5.07
2023-03-04T19:38:00.375Z,5.06
2023-03-04T19:40:28.268Z,4.97
2023-03-04T19:42:56.364Z,4.99
2023-03-04T19:45:22.956Z,5.07
2023-03-04T19:47:49.322Z,4.94
2023-03-04T19:50:16.234Z,4.83
2023-03-04T19:52:43.301Z,4.86
2023-03-04T19:55:12.522Z,4.84
2023-03-04T19:57:40.387Z,4.96
2023-03-04T20:00:07.609Z,5.00
2023-03-04T20:02:34.184Z,5.03
2023-03-04T20:05:00.547Z,5.04
2023-03-04T20:07:26.877Z,4.99
2023-03-04T20:09:55.380Z,5.07
2023-03-04T20:12:22.386Z,4.99
2023-03-04T20:14:51.082Z,4.92
2023-03-04T20:17:17.692Z,4.95
2023-03-04T20:19:44.386Z,4.89
2023-03-04T20:22:13.323Z,4.99
2023-03-04T20:24:39.746Z,4.85
2023-03-04T20:27:06.084Z,4.77
2023-03-04T20:29:32.451Z,4.72
2023-03-04T20:31:59.195Z,4.72
2023-03-04T20:34:26.931Z,4.68
2023-03-04T20:36:53.344Z,4.65
2023-03-04T20:39:28.711Z,4.71
2023-03-04T20:41:56.941Z,4.88
2023-03-04T20:44:23.379Z,4.92
2023-03-04T20:46:49.832Z,4.96
2023-03-04T20:49:22.180Z,4.92
2023-03-04T20:51:57.879Z,4.99
2023-03-04T20:54:24.245Z,4.91
2023-03-04T20:56:50.865Z,4.86
2023-03-04T20:59:17.252Z,4.77
2023-03-04T21:01:45.178Z,4.76
2023-03-04T21:04:11.746Z,4.76
2023-03-04T21:06:38.641Z,4.77
2023-03-04T21:09:08.440Z,4.75
2023-03-04T21:11:40.096Z,4.77
2023-03-04T21:14:24.712Z,4.78
2023-03-04T21:16:53.616Z,4.69
2023-03-04T21:19:32.124Z,4.69
2023-03-04T21:21:59.683Z,4.64
2023-03-04T21:24:29.020Z,4.59
2023-03-04T21:26:55.596Z,4.59
2023-03-04T21:29:23.954Z,4.57
2023-03-04T21:31:54.329Z,4.57
2023-03-04T21:34:30.846Z,4.67
2023-03-04T21:36:57.207Z,4.70
2023-03-04T21:39:24.692Z,4.59
2023-03-04T21:41:51.804Z,4.64
2023-03-04T21:44:27.791Z,4.69
2023-03-04T21:46:56.807Z,4.55
2023-03-04T21:49:23.470Z,4.68
2023-03-04T21:51:49.841Z,4.61
2023-03-04T21:54:16.302Z,4.60
2023-03-04T21:56:42.688Z,4.58
2023-03-04T21:59:12.112Z,4.50
2023-03-04T22:01:39.062Z,4.51
2023-03-04T22:04:05.591Z,4.61
2023-03-04T22:06:33.584Z,4.58
2023-03-04T22:09:02.164Z,4.62
2023-03-04T22:11:29.908Z,4.62
2023-03-04T22:13:58.196Z,4.59
2023-03-04T22:16:25.716Z,4.58
2023-03-04T22:18:52.308Z,4.58
2023-03-04T22:21:20.108Z,4.60
2023-03-04T22:23:47.326Z,4.60
2023-03-04T22:26:26.641Z,4.52
2023-03-04T22:28:53.007Z,4.64
2023-03-04T22:31:31.769Z,4.55
2023-03-04T22:34:00.922Z,4.48
2023-03-04T22:36:29.221Z,4.49
2023-03-04T22:38:56.074Z,4.48
2023-03-04T22:41:23.277Z,4.48
2023-03-04T22:43:50.188Z,4.44
2023-03-04T22:46:24.160Z,4.46
2023-03-04T22:48:52.442Z,4.50
2023-03-04T22:51:20.376Z,4.47
2023-03-04T22:53:47.733Z,4.50
2023-03-04T22:56:15.507Z,4.56
2023-03-04T22:58:43.464Z,4.51
2023-03-04T23:01:10.605Z,4.52
2023-03-04T23:03:37.775Z,4.48
2023-03-04T23:06:14.945Z,4.47
2023-03-04T23:08:42.876Z,4.48
2023-03-04T23:11:11.781Z,4.58
2023-03-04T23:13:39.550Z,4.57
2023-03-04T23:16:08.531Z,4.46
2023-03-04T23:18:35.780Z,4.48
2023-03-04T23:21:23.910Z,4.59
2023-03-04T23:23:51.816Z,4.64
2023-03-04T23:26:27.105Z,4.58
2023-03-04T23:28:56.817Z,4.63
2023-03-04T23:31:23.563Z,4.64
2023-03-04T23:33:50.026Z,4.56
2023-03-04T23:36:18.873Z,4.48
2023-03-04T23:38:47.541Z,4.46
2023-03-04T23:41:16.187Z,4.43
2023-03-04T23:43:42.613Z,4.37
2023-03-04T23:46:11.425Z,4.45
2023-03-04T23:48:39.322Z,4.43
2023-03-04T23:51:05.714Z,4.59
2023-03-04T23:53:34.254Z,4.52
2023-03-04T23:56:00.592Z,4.56
2023-03-04T23:58:27.100Z,4.65
